Time;durP1;ratioP1;P1;durP2;ratioP2;P2;SDS_P1;SDS_P2;PMS_P1;PMS_P2;Temp;Humidity;BMP_temperature;BMP_pressure;BME280_temperature;BME280_humidity;BME280_pressure;Samples;Min_cycle;Max_cycle;Signal;HPM_P1;HPM_P2
2022/06/22 00:01:21;;;;;;;;;;;;;;;19.19;79.99;94955.03;5072929;28;1008;-47
2022/06/22 00:03:50;;;;;;;;;;;;;;;19.31;79.04;94951.41;5072899;28;1091;-47
2022/06/22 00:06:29;;;;;;;;;;;;;;;19.48;78.98;94950.84;5082776;28;1154;-47
2022/06/22 00:08:55;;;;;;;;;;;;;;;19.42;78.85;94951.72;5097217;28;1981;-47
2022/06/22 00:11:22;;;;;;;;;;;;;;;19.60;78.11;94953.69;5097229;28;1042;-48
2022/06/22 00:13:51;;;;;;;;;;;;;;;19.39;78.78;94952.16;5097417;28;1246;-47
2022/06/22 00:16:19;;;;;;;;;;;;;;;19.18;80.23;94956.06;5097278;28;996;-47
2022/06/22 00:18:47;;;;;;;;;;;;;;;19.23;79.64;94942.69;5096944;28;962;-47
2022/06/22 00:21:18;;;;;;;;;;;;;;;19.15;79.88;94949.22;5097415;28;969;-47
2022/06/22 00:23:47;;;;;;;;;;;;;;;19.01;81.12;94953.06;5096522;28;1053;-47
2022/06/22 00:26:26;;;;;;;;;;;;;;;18.98;81.20;94950.81;5096869;28;1021;-47
2022/06/22 00:28:59;;;;;;;;;;;;;;;18.97;80.36;94955.41;5096846;28;1914;-47
2022/06/22 00:31:37;;;;;;;;;;;;;;;19.00;80.30;94951.41;5096878;28;1028;-47
2022/06/22 00:34:14;;;;;;;;;;;;;;;19.02;80.29;94952.03;5096491;28;1100;-47
2022/06/22 00:36:42;;;;;;;;;;;;;;;19.08;79.94;94949.28;5096566;28;1025;-47
2022/06/22 00:39:21;;;;;;;;;;;;;;;19.04;79.77;94949.91;5096380;28;1024;-47
2022/06/22 00:42:14;;;;;;;;;;;;;;;19.05;79.15;94946.19;5096565;28;1025;-47
2022/06/22 00:44:58;;;;;;;;;;;;;;;18.90;79.95;94947.28;5086375;28;1438;-47
2022/06/22 00:47:27;;;;;;;;;;;;;;;18.87;80.24;94946.91;5095989;28;1910;-47
2022/06/22 00:50:00;;;;;;;;;;;;;;;18.74;81.44;94953.19;5096406;28;1060;-47
2022/06/22 00:52:35;;;;;;;;;;;;;;;18.67;81.75;94939.69;5096276;28;1061;-47
2022/06/22 00:55:02;;;;;;;;;;;;;;;18.85;81.19;94938.97;5096114;28;1061;-47
2022/06/22 00:57:32;;;;;;;;;;;;;;;18.87;80.68;94945.00;5096023;28;970;-47
2022/06/22 01:00:06;;;;;;;;;;;;;;;19.07;79.72;94934.06;5096484;28;982;-48
2022/06/22 01:02:37;;;;;;;;;;;;;;;18.92;80.70;94938.97;5095941;28;1002;-47
2022/06/22 01:05:07;;;;;;;;;;;;;;;18.99;81.08;94942.47;5096306;28;1029;-47
2022/06/22 01:07:35;;;;;;;;;;;;;;;18.92;81.06;94952.50;5078834;28;2001;-47
2022/06/22 01:10:08;;;;;;;;;;;;;;;18.84;81.16;94950.88;5075850;28;1031;-48
2022/06/22 01:12:54;;;;;;;;;;;;;;;18.79;81.74;94957.97;5075781;28;961;-47
2022/06/22 01:15:20;;;;;;;;;;;;;;;18.76;81.61;94956.50;5075878;28;1041;-47
2022/06/22 01:17:53;;;;;;;;;;;;;;;18.87;81.63;94963.16;5075211;28;1000;-47
2022/06/22 01:20:22;;;;;;;;;;;;;;;18.76;81.89;94947.56;5075688;28;989;-47
2022/06/22 01:22:51;;;;;;;;;;;;;;;18.54;82.90;94951.41;5075351;28;995;-47
2022/06/22 01:25:17;;;;;;;;;;;;;;;18.59;82.77;94952.66;5075274;28;1025;-47
2022/06/22 01:27:44;;;;;;;;;;;;;;;18.62;82.13;94944.09;5075596;28;1910;-47
2022/06/22 01:30:27;;;;;;;;;;;;;;;18.41;83.23;94946.06;5075498;28;950;-47
2022/06/22 01:32:53;;;;;;;;;;;;;;;18.32;83.79;94944.63;5075322;28;973;-47
2022/06/22 01:35:22;;;;;;;;;;;;;;;18.41;83.39;94943.34;5075006;28;1288;-47
2022/06/22 01:37:48;;;;;;;;;;;;;;;18.34;83.17;94948.81;5075485;28;1046;-48
2022/06/22 01:40:25;;;;;;;;;;;;;;;18.43;83.14;94940.44;5075333;28;1036;-47
2022/06/22 01:43:02;;;;;;;;;;;;;;;18.65;81.51;94949.09;5075323;28;977;-47
2022/06/22 01:45:40;;;;;;;;;;;;;;;18.78;81.65;94943.59;5075042;28;1094;-47
2022/06/22 01:48:09;;;;;;;;;;;;;;;18.56;82.58;94937.66;5074929;28;1909;-47
2022/06/22 01:50:38;;;;;;;;;;;;;;;18.56;82.17;94939.56;5075034;28;1040;-47
2022/06/22 01:53:19;;;;;;;;;;;;;;;18.64;82.54;94944.72;5074959;28;1025;-47
2022/06/22 01:55:54;;;;;;;;;;;;;;;18.61;82.79;94940.56;5074592;28;1997;-47
2022/06/22 01:58:20;;;;;;;;;;;;;;;18.49;82.48;94926.03;5074768;28;1117;-47
2022/06/22 02:00:50;;;;;;;;;;;;;;;18.22;84.07;94920.75;5075153;28;984;-47
2022/06/22 02:03:19;;;;;;;;;;;;;;;18.09;84.97;94923.50;5074966;28;1003;-47
2022/06/22 02:07:44;;;;;;;;;;;;;;;18.25;84.67;94927.59;5076324;28;1182;-47
2022/06/22 02:08:50;;;;;;;;;;;;;;;18.39;84.01;94931.91;5094563;28;1994;-47
2022/06/22 02:11:19;;;;;;;;;;;;;;;18.33;83.71;94922.78;5094868;28;1072;-47
2022/06/22 02:14:03;;;;;;;;;;;;;;;18.30;84.00;94922.38;5094794;28;1019;-47
2022/06/22 02:16:35;;;;;;;;;;;;;;;18.34;84.14;94929.00;5094819;28;1107;-47
2022/06/22 02:19:01;;;;;;;;;;;;;;;18.25;84.17;94923.03;5094505;28;914;-47
2022/06/22 02:21:47;;;;;;;;;;;;;;;18.22;84.39;94928.84;5094489;28;955;-47
2022/06/22 02:24:20;;;;;;;;;;;;;;;18.13;84.43;94914.72;5094080;28;1263;-48
2022/06/22 02:26:51;;;;;;;;;;;;;;;18.29;83.81;94915.31;5094513;28;1049;-47
2022/06/22 02:29:20;;;;;;;;;;;;;;;18.23;84.07;94916.16;5093472;28;1973;-47
2022/06/22 02:31:46;;;;;;;;;;;;;;;17.96;84.46;94924.34;5094343;28;1039;-47
2022/06/22 02:34:13;;;;;;;;;;;;;;;17.88;84.84;94922.72;5094287;28;1156;-47
2022/06/22 02:36:41;;;;;;;;;;;;;;;17.83;85.00;94927.06;5094504;28;1201;-47
2022/06/22 02:39:09;;;;;;;;;;;;;;;17.98;84.67;94918.75;5094363;28;984;-47
2022/06/22 02:44:31;;;;;;;;;;;;;;;17.95;85.07;94920.84;5094096;28;958;-47
2022/06/22 02:47:11;;;;;;;;;;;;;;;17.86;85.51;94916.69;5094436;28;1040;-47
2022/06/22 02:49:39;;;;;;;;;;;;;;;18.02;84.70;94904.59;5093841;28;1905;-47
2022/06/22 02:52:07;;;;;;;;;;;;;;;17.84;85.27;94913.38;5094209;28;965;-47
2022/06/22 02:54:36;;;;;;;;;;;;;;;17.56;85.96;94911.72;5093610;28;1095;-47
2022/06/22 02:57:40;;;;;;;;;;;;;;;17.51;87.35;94910.69;5093956;28;968;-47
2022/06/22 03:00:08;;;;;;;;;;;;;;;17.50;87.05;94912.56;5011746;28;1174;-47
2022/06/22 03:02:34;;;;;;;;;;;;;;;17.66;86.59;94919.44;5011852;28;1249;-47
2022/06/22 03:05:00;;;;;;;;;;;;;;;17.84;86.36;94921.50;5051219;28;1116;-47
2022/06/22 03:07:27;;;;;;;;;;;;;;;17.88;85.68;94927.31;5077474;28;1981;-47
2022/06/22 03:09:54;;;;;;;;;;;;;;;17.87;85.88;94933.75;5073606;28;942;-47
2022/06/22 03:12:20;;;;;;;;;;;;;;;17.93;85.82;94938.34;5073722;28;1051;-47
2022/06/22 03:14:55;;;;;;;;;;;;;;;17.93;85.58;94932.91;5073467;28;959;-47
2022/06/22 03:17:26;;;;;;;;;;;;;;;17.68;85.72;94930.84;5073557;28;977;-47
2022/06/22 03:19:54;;;;;;;;;;;;;;;17.81;86.06;94935.38;5073297;28;1037;-47
2022/06/22 03:22:23;;;;;;;;;;;;;;;18.08;84.15;94935.34;5073646;28;1000;-47
2022/06/22 03:24:49;;;;;;;;;;;;;;;18.02;84.92;94933.50;5073169;28;1013;-48
2022/06/22 03:27:20;;;;;;;;;;;;;;;17.84;85.83;94926.03;5073191;28;1033;-47
2022/06/22 03:29:54;;;;;;;;;;;;;;;17.94;86.06;94924.56;5073277;28;1906;-47
2022/06/22 03:32:27;;;;;;;;;;;;;;;18.08;85.13;94925.38;5073087;28;973;-47
2022/06/22 03:35:15;;;;;;;;;;;;;;;18.13;85.24;94925.56;5073007;28;1949;-47
2022/06/22 03:37:45;;;;;;;;;;;;;;;18.23;85.07;94927.84;5073528;28;1028;-47
2022/06/22 03:40:15;;;;;;;;;;;;;;;18.23;85.31;94932.38;5072925;28;1021;-47
2022/06/22 03:42:44;;;;;;;;;;;;;;;18.29;84.81;94928.84;5073169;28;1049;-47
2022/06/22 03:45:10;;;;;;;;;;;;;;;18.42;84.85;94933.34;5073078;28;1021;-47
2022/06/22 03:47:36;;;;;;;;;;;;;;;18.44;84.93;94924.00;5073049;28;1985;-47
2022/06/22 03:50:05;;;;;;;;;;;;;;;18.33;85.27;94930.91;5073295;28;988;-47
2022/06/22 03:52:34;;;;;;;;;;;;;;;18.56;85.69;94943.09;5072827;28;1873;-47
2022/06/22 03:55:02;;;;;;;;;;;;;;;18.63;85.33;94938.47;5072976;28;1038;-47
2022/06/22 03:57:32;;;;;;;;;;;;;;;18.56;86.00;94942.25;5072770;28;1037;-47
2022/06/22 03:59:58;;;;;;;;;;;;;;;18.67;86.28;94949.69;5073304;28;974;-47
2022/06/22 04:02:25;;;;;;;;;;;;;;;18.88;85.68;94954.81;5072727;28;1101;-48
2022/06/22 04:04:53;;;;;;;;;;;;;;;19.16;85.62;94942.75;5073013;28;1029;-48
2022/06/22 04:07:19;;;;;;;;;;;;;;;19.28;85.74;94949.13;5087575;28;1864;-47
2022/06/22 04:09:51;;;;;;;;;;;;;;;19.42;84.78;94941.72;5093020;28;1902;-48
2022/06/22 04:12:23;;;;;;;;;;;;;;;19.73;83.08;94940.03;5092906;28;1072;-47
2022/06/22 04:15:09;;;;;;;;;;;;;;;19.97;82.18;94940.19;5093378;28;1012;-47
2022/06/22 04:17:37;;;;;;;;;;;;;;;19.96;83.73;94947.50;5092883;28;1108;-48
2022/06/22 04:20:13;;;;;;;;;;;;;;;19.96;83.01;94944.81;5093107;28;963;-48
2022/06/22 04:22:42;;;;;;;;;;;;;;;20.04;84.39;94935.53;5092801;28;1973;-48
2022/06/22 04:25:28;;;;;;;;;;;;;;;20.14;84.01;94929.56;5092747;28;1849;-48
2022/06/22 04:27:56;;;;;;;;;;;;;;;20.40;82.58;94937.41;5091285;28;1995;-47
2022/06/22 04:30:24;;;;;;;;;;;;;;;20.70;82.76;94946.66;5092919;28;1026;-48
2022/06/22 04:33:09;;;;;;;;;;;;;;;20.77;81.94;94952.84;5092724;28;1044;-47
2022/06/22 04:35:44;;;;;;;;;;;;;;;20.80;82.21;94952.41;5092665;28;1183;-48
2022/06/22 04:38:29;;;;;;;;;;;;;;;20.76;82.97;94953.94;5092919;28;1033;-47
2022/06/22 04:41:04;;;;;;;;;;;;;;;20.86;81.59;94957.72;5092985;28;992;-47
2022/06/22 04:43:31;;;;;;;;;;;;;;;20.90;81.73;94963.53;5092522;28;1108;-47
2022/06/22 04:45:57;;;;;;;;;;;;;;;20.94;80.30;94963.91;5093057;28;969;-47
2022/06/22 04:48:28;;;;;;;;;;;;;;;20.97;81.02;94969.72;5092821;28;1910;-47
2022/06/22 04:50:59;;;;;;;;;;;;;;;21.12;80.42;94972.03;5092964;28;1053;-47
2022/06/22 04:53:31;;;;;;;;;;;;;;;21.23;78.75;94979.38;5077890;28;1054;-48
2022/06/22 04:56:00;;;;;;;;;;;;;;;21.39;77.15;94977.88;5096328;28;964;-47
2022/06/22 04:58:26;;;;;;;;;;;;;;;21.52;77.32;94968.72;5096217;28;962;-47
2022/06/22 05:00:53;;;;;;;;;;;;;;;21.63;76.82;94972.53;5096376;28;984;-48
2022/06/22 05:03:19;;;;;;;;;;;;;;;21.70;77.57;94973.22;5096180;28;958;-48
2022/06/22 05:05:45;;;;;;;;;;;;;;;21.80;76.98;94969.94;5094229;28;1426;-47
2022/06/22 05:08:17;;;;;;;;;;;;;;;21.87;75.62;94975.25;5075607;28;1914;-48
2022/06/22 05:10:53;;;;;;;;;;;;;;;21.92;76.08;94959.06;5075592;28;1072;-50
2022/06/22 05:13:42;;;;;;;;;;;;;;;22.09;76.51;94959.19;5076126;28;1008;-48
2022/06/22 05:16:11;;;;;;;;;;;;;;;22.00;75.85;94959.50;5062995;28;1302;-50
2022/06/22 05:18:38;;;;;;;;;;;;;;;22.12;74.93;94969.56;5075471;28;1048;-48
2022/06/22 05:21:23;;;;;;;;;;;;;;;22.29;75.53;94975.16;5075607;28;1026;-47
2022/06/22 05:23:52;;;;;;;;;;;;;;;22.69;74.61;94977.09;5075404;28;999;-47
2022/06/22 05:26:21;;;;;;;;;;;;;;;22.79;73.55;94980.03;5075519;28;1044;-47
2022/06/22 05:28:52;;;;;;;;;;;;;;;22.78;74.31;94972.91;5075265;28;1983;-48
2022/06/22 05:31:22;;;;;;;;;;;;;;;22.75;75.64;94978.88;5075454;28;1013;-47
2022/06/22 05:33:49;;;;;;;;;;;;;;;22.64;73.75;94986.00;5075051;28;1247;-47
2022/06/22 05:36:19;;;;;;;;;;;;;;;22.76;73.39;94980.50;5075401;28;1271;-47
2022/06/22 05:38:47;;;;;;;;;;;;;;;22.91;72.52;94978.09;5075253;28;1146;-47
2022/06/22 05:41:15;;;;;;;;;;;;;;;23.07;73.44;94987.44;5075388;28;1089;-47
2022/06/22 05:43:41;;;;;;;;;;;;;;;23.09;70.01;94979.84;5075008;28;1031;-47
2022/06/22 05:46:09;;;;;;;;;;;;;;;23.21;71.06;94987.16;5075132;28;969;-47
2022/06/22 05:48:40;;;;;;;;;;;;;;;23.31;70.00;94979.13;5074746;28;2001;-47
2022/06/22 05:51:13;;;;;;;;;;;;;;;23.41;70.30;94979.34;5075309;28;1024;-47
2022/06/22 05:53:43;;;;;;;;;;;;;;;23.54;70.96;94983.63;5074762;28;1028;-47
2022/06/22 05:56:41;;;;;;;;;;;;;;;23.65;71.17;94979.19;5074970;28;1009;-47
2022/06/22 05:59:12;;;;;;;;;;;;;;;23.80;70.33;94986.84;5019935;28;1266;-47
2022/06/22 06:01:41;;;;;;;;;;;;;;;23.89;71.32;94977.97;5074905;28;1056;-47
2022/06/22 06:04:17;;;;;;;;;;;;;;;23.93;69.77;94978.31;5074507;28;996;-47
2022/06/22 06:06:44;;;;;;;;;;;;;;;23.97;71.91;94979.47;5084620;28;1181;-48
2022/06/22 06:09:19;;;;;;;;;;;;;;;24.07;71.84;94981.53;5095106;28;2357;-47
2022/06/22 06:11:47;;;;;;;;;;;;;;;24.01;71.97;94972.41;5095227;28;956;-47
2022/06/22 06:14:19;;;;;;;;;;;;;;;24.23;71.17;94971.66;5094809;28;978;-47
2022/06/22 06:16:48;;;;;;;;;;;;;;;24.24;70.75;94971.41;5094844;28;1044;-47
2022/06/22 06:19:19;;;;;;;;;;;;;;;24.30;70.09;94973.16;5094530;28;1107;-47
2022/06/22 06:21:46;;;;;;;;;;;;;;;24.47;69.69;94969.53;5094562;28;968;-48
2022/06/22 06:24:18;;;;;;;;;;;;;;;24.66;69.52;94972.81;5094491;28;974;-47
2022/06/22 06:29:42;;;;;;;;;;;;;;;24.95;68.31;94965.25;5094317;28;1985;-47
2022/06/22 06:32:22;;;;;;;;;;;;;;;24.94;70.58;94958.94;5094422;28;1029;-47
2022/06/22 06:34:52;;;;;;;;;;;;;;;25.00;69.93;94961.72;5094309;28;1126;-47
2022/06/22 06:37:23;;;;;;;;;;;;;;;25.20;69.34;94958.41;5094425;28;1044;-48
2022/06/22 06:39:52;;;;;;;;;;;;;;;25.24;68.91;94967.78;5094193;28;1033;-47
2022/06/22 06:42:18;;;;;;;;;;;;;;;25.26;68.99;94971.91;5094331;28;1032;-47
2022/06/22 06:44:44;;;;;;;;;;;;;;;25.36;69.08;94960.22;5093916;28;1000;-48
2022/06/22 06:47:14;;;;;;;;;;;;;;;25.49;68.73;94959.81;5094414;28;958;-47
2022/06/22 06:49:47;;;;;;;;;;;;;;;25.45;68.51;94961.41;5094000;28;1993;-48
2022/06/22 06:52:22;;;;;;;;;;;;;;;25.48;68.05;94960.09;5094260;28;1045;-48
2022/06/22 06:54:51;;;;;;;;;;;;;;;25.60;68.49;94962.66;5093797;28;970;-47
2022/06/22 06:57:19;;;;;;;;;;;;;;;25.78;67.99;94950.47;5093982;28;1021;-48
2022/06/22 06:59:48;;;;;;;;;;;;;;;25.82;65.20;94949.69;5093908;28;1056;-48
2022/06/22 07:02:24;;;;;;;;;;;;;;;25.81;64.78;94955.44;5094126;28;1019;-47
2022/06/22 07:04:51;;;;;;;;;;;;;;;25.97;65.35;94950.91;5093902;28;1036;-47
2022/06/22 07:07:27;;;;;;;;;;;;;;;26.25;64.93;94947.00;5079154;28;1206;-47
2022/06/22 07:09:55;;;;;;;;;;;;;;;26.40;64.27;94943.53;5073315;28;1979;-48
2022/06/22 07:12:31;;;;;;;;;;;;;;;26.49;64.42;94941.94;5073759;28;1008;-47
2022/06/22 07:15:00;;;;;;;;;;;;;;;26.64;65.08;94949.44;5072909;28;1045;-47
2022/06/22 07:17:27;;;;;;;;;;;;;;;26.75;65.55;94945.66;5073549;28;1029;-47
2022/06/22 07:20:06;;;;;;;;;;;;;;;26.78;64.13;94938.81;5073260;28;1872;-48
2022/06/22 07:22:44;;;;;;;;;;;;;;;26.87;65.68;94938.00;5073544;28;950;-48
2022/06/22 07:25:22;;;;;;;;;;;;;;;26.90;65.25;94936.66;5072996;28;922;-48
2022/06/22 07:27:51;;;;;;;;;;;;;;;27.02;64.28;94937.25;5073320;28;1976;-48
2022/06/22 07:30:20;;;;;;;;;;;;;;;27.26;63.89;94945.84;5073134;28;1028;-47
2022/06/22 07:32:58;;;;;;;;;;;;;;;27.35;63.70;94946.13;5073103;28;1069;-48
2022/06/22 07:35:34;;;;;;;;;;;;;;;27.45;64.09;94954.41;5072937;28;1116;-47
2022/06/22 07:38:00;;;;;;;;;;;;;;;27.47;63.43;94940.41;5073437;28;1103;-47
2022/06/22 07:42:37;;;;;;;;;;;;;;;27.57;61.83;94937.66;5117458;27;1744082;-47
2022/06/22 07:45:03;;;;;;;;;;;;;;;27.53;58.64;94939.31;5173105;27;1105;-47
2022/06/22 07:47:37;;;;;;;;;;;;;;;27.73;62.04;94932.97;5173068;27;957;-48
2022/06/22 07:50:11;;;;;;;;;;;;;;;28.08;62.71;94938.75;5173267;27;1123;-48
2022/06/22 07:52:40;;;;;;;;;;;;;;;28.32;60.32;94925.25;5173233;27;1102;-48
2022/06/22 07:55:12;;;;;;;;;;;;;;;28.39;59.74;94929.34;5172841;27;968;-48
2022/06/22 07:57:51;;;;;;;;;;;;;;;28.41;57.58;94926.34;5173003;27;1015;-47
2022/06/22 08:00:22;;;;;;;;;;;;;;;28.49;56.75;94928.50;5172813;27;1988;-48
2022/06/22 08:02:52;;;;;;;;;;;;;;;28.55;57.46;94919.19;5172964;27;1098;-47
2022/06/22 08:05:20;;;;;;;;;;;;;;;28.69;57.19;94916.66;5172838;27;1094;-47
2022/06/22 08:07:50;;;;;;;;;;;;;;;28.75;57.78;94926.53;5172749;27;1182;-48
2022/06/22 08:10:16;;;;;;;;;;;;;;;28.73;57.04;94920.47;5172650;27;1008;-48
2022/06/22 08:13:03;;;;;;;;;;;;;;;28.76;56.35;94922.69;5154154;27;1281;-48
2022/06/22 08:15:32;;;;;;;;;;;;;;;28.84;57.76;94924.03;5172300;27;1909;-48
2022/06/22 08:20:49;;;;;;;;;;;;;;;28.87;57.72;94917.13;5133550;27;1301454;-47
2022/06/22 08:23:18;;;;;;;;;;;;;;;28.92;57.72;94911.59;5173322;27;1039;-48
2022/06/22 08:25:45;;;;;;;;;;;;;;;28.96;55.87;94918.19;5172753;27;1039;-47
2022/06/22 08:28:15;;;;;;;;;;;;;;;29.14;56.78;94922.22;5173366;27;1023;-47
2022/06/22 08:30:41;;;;;;;;;;;;;;;29.28;54.35;94917.75;5172995;27;992;-47
2022/06/22 08:33:11;;;;;;;;;;;;;;;29.44;56.06;94912.97;5173152;27;1027;-48
2022/06/22 08:35:41;;;;;;;;;;;;;;;29.49;55.60;94912.94;5172691;27;969;-48
2022/06/22 08:38:20;;;;;;;;;;;;;;;29.51;53.59;94910.72;5173069;27;1130;-47
2022/06/22 08:40:56;;;;;;;;;;;;;;;29.45;50.98;94908.28;5172764;27;1020;-48
2022/06/22 08:43:33;;;;;;;;;;;;;;;29.49;52.08;94901.09;5172800;27;987;-47
2022/06/22 08:46:22;;;;;;;;;;;;;;;29.49;52.47;94904.66;5172620;27;953;-47
2022/06/22 08:49:07;;;;;;;;;;;;;;;29.78;51.78;94904.75;5159386;27;1454;-47
2022/06/22 08:51:43;;;;;;;;;;;;;;;29.97;50.61;94895.75;5172606;27;1043;-47
2022/06/22 08:54:28;;;;;;;;;;;;;;;30.03;52.49;94899.28;5172553;27;1047;-48
2022/06/22 08:57:09;;;;;;;;;;;;;;;30.15;51.35;94896.97;5172702;27;936;-47
2022/06/22 08:59:44;;;;;;;;;;;;;;;30.14;50.49;94901.66;5172458;27;2048;-47
2022/06/22 09:02:10;;;;;;;;;;;;;;;30.12;51.36;94895.59;5172474;27;965;-47
2022/06/22 09:04:36;;;;;;;;;;;;;;;29.86;52.88;94892.28;5172447;27;1022;-47
2022/06/22 09:07:28;;;;;;;;;;;;;;;29.71;52.88;94898.72;5172039;27;1153;-48
2022/06/22 09:10:01;;;;;;;;;;;;;;;29.82;53.42;94893.16;5132927;27;1119;-48
2022/06/22 09:12:27;;;;;;;;;;;;;;;29.81;53.30;94884.06;5172067;27;1023;-47
2022/06/22 09:14:56;;;;;;;;;;;;;;;29.45;53.59;94880.75;5172325;27;932;-48
2022/06/22 09:17:40;;;;;;;;;;;;;;;29.37;53.70;94877.50;5171912;27;964;-48
2022/06/22 09:20:15;;;;;;;;;;;;;;;29.39;55.07;94866.19;5171947;27;1906;-48
2022/06/22 09:22:41;;;;;;;;;;;;;;;29.34;52.48;94864.28;5172077;27;977;-48
2022/06/22 09:25:26;;;;;;;;;;;;;;;29.53;54.39;94869.94;5172025;27;1044;-48
2022/06/22 09:27:59;;;;;;;;;;;;;;;29.32;52.77;94862.94;5171861;27;1063;-48
2022/06/22 09:30:28;;;;;;;;;;;;;;;29.55;53.56;94872.41;5168513;27;1036;-48
2022/06/22 09:32:57;;;;;;;;;;;;;;;30.02;52.35;94864.59;5158078;27;1200;-47
2022/06/22 09:35:23;;;;;;;;;;;;;;;30.33;52.72;94865.09;5157868;27;1028;-48
2022/06/22 09:38:09;;;;;;;;;;;;;;;30.43;51.36;94848.44;5157843;27;1039;-48
2022/06/22 09:40:54;;;;;;;;;;;;;;;30.42;52.23;94852.31;5105481;27;1914;-47
2022/06/22 09:43:28;;;;;;;;;;;;;;;30.44;52.32;94855.59;5157741;27;1070;-47
2022/06/22 09:46:18;;;;;;;;;;;;;;;30.55;51.09;94856.28;5158315;27;1059;-47
2022/06/22 09:48:56;;;;;;;;;;;;;;;30.72;50.55;94859.38;5144271;27;1763;-47
2022/06/22 09:51:42;;;;;;;;;;;;;;;30.78;50.02;94853.81;5139171;27;1096;-47
2022/06/22 09:57:07;;;;;;;;;;;;;;;30.73;50.12;94857.44;5157425;27;960;-47
2022/06/22 09:59:39;;;;;;;;;;;;;;;30.81;49.93;94854.03;5157622;27;1992;-47
2022/06/22 10:02:06;;;;;;;;;;;;;;;30.57;50.06;94843.03;5157560;27;1020;-47
2022/06/22 10:04:38;;;;;;;;;;;;;;;30.44;50.85;94841.00;5157493;27;1184;-48
2022/06/22 10:07:10;;;;;;;;;;;;;;;30.14;50.43;94842.94;5144025;27;1148;-47
2022/06/22 10:09:47;;;;;;;;;;;;;;;29.75;49.30;94833.69;5136431;27;1004;-47
2022/06/22 10:12:13;;;;;;;;;;;;;;;29.55;50.81;94829.16;5136628;27;1051;-48
2022/06/22 10:14:45;;;;;;;;;;;;;;;29.55;51.29;94833.84;5136612;27;983;-47
2022/06/22 10:17:46;;;;;;;;;;;;;;;29.57;52.49;94837.94;5136281;27;1114;-48
2022/06/22 10:20:14;;;;;;;;;;;;;;;30.05;52.87;94837.25;5032711;28;1910;-48
2022/06/22 10:22:49;;;;;;;;;;;;;;;30.13;52.75;94827.53;5099832;28;1092;-48
2022/06/22 10:25:21;;;;;;;;;;;;;;;30.40;51.67;94832.47;5115711;28;968;-47
2022/06/22 10:28:13;;;;;;;;;;;;;;;30.69;51.67;94826.03;5115603;28;973;-47
2022/06/22 10:30:48;;;;;;;;;;;;;;;30.43;51.78;94828.31;5084258;28;1169;-48
2022/06/22 10:33:15;;;;;;;;;;;;;;;30.17;51.89;94814.81;5115499;28;1090;-48
2022/06/22 10:35:57;;;;;;;;;;;;;;;29.97;50.56;94813.91;5115615;28;1035;-48
2022/06/22 10:38:23;;;;;;;;;;;;;;;29.77;51.92;94814.94;5115246;28;1004;-47
2022/06/22 10:46:57;;;;;;;;;;;;;;;29.24;53.39;94831.34;5115320;28;1013;-48
2022/06/22 10:49:33;;;;;;;;;;;;;;;29.30;52.78;94829.38;5114953;28;1047;-48
2022/06/22 10:52:16;;;;;;;;;;;;;;;29.25;51.49;94826.66;5115243;28;1040;-47
2022/06/22 10:54:42;;;;;;;;;;;;;;;29.18;50.45;94818.72;5114702;28;1111;-47
2022/06/22 10:57:14;;;;;;;;;;;;;;;29.26;50.08;94831.88;5115183;28;1033;-47
2022/06/22 10:59:46;;;;;;;;;;;;;;;29.46;50.47;94830.06;5114670;28;1910;-47
2022/06/22 11:02:24;;;;;;;;;;;;;;;29.49;50.01;94827.56;5114969;28;1033;-48
2022/06/22 11:04:56;;;;;;;;;;;;;;;29.42;49.87;94829.00;5114791;28;1056;-47
2022/06/22 11:07:31;;;;;;;;;;;;;;;29.39;50.60;94820.22;5112320;27;1389;-47
2022/06/22 11:10:03;;;;;;;;;;;;;;;29.41;49.71;94833.69;5135148;27;914;-47
2022/06/22 11:12:41;;;;;;;;;;;;;;;29.39;49.19;94828.47;5117044;27;1012;-47
2022/06/22 11:15:19;;;;;;;;;;;;;;;29.39;48.84;94831.22;5135416;27;1782;-47
2022/06/22 11:18:04;;;;;;;;;;;;;;;29.36;49.02;94836.47;5135135;27;1096;-47
2022/06/22 11:20:33;;;;;;;;;;;;;;;29.21;48.55;94834.66;5144852;27;1910;-48
2022/06/22 11:23:08;;;;;;;;;;;;;;;29.08;49.47;94846.28;5155646;27;1117;-47
2022/06/22 11:31:12;;;;;;;;;;;;;;;28.82;50.77;94838.19;5155723;27;1217;-47
2022/06/22 11:33:50;;;;;;;;;;;;;;;28.84;49.08;94838.75;5155598;27;1908;-48
2022/06/22 11:36:44;;;;;;;;;;;;;;;28.81;48.96;94842.03;5137130;27;1486;-47
2022/06/22 11:39:13;;;;;;;;;;;;;;;28.75;49.71;94835.75;5155556;27;1890;-48
2022/06/22 11:41:40;;;;;;;;;;;;;;;28.74;50.17;94833.28;5137194;27;1447;-48
2022/06/22 11:44:19;;;;;;;;;;;;;;;28.71;49.44;94840.16;5155392;27;1044;-48
2022/06/22 11:46:49;;;;;;;;;;;;;;;28.66;49.89;94851.19;5137350;27;1625;-48
2022/06/22 11:49:15;;;;;;;;;;;;;;;28.66;49.84;94861.38;5137022;27;956;-47
2022/06/22 11:51:50;;;;;;;;;;;;;;;28.65;50.38;94860.56;5155204;27;1083;-48
2022/06/22 11:54:28;;;;;;;;;;;;;;;28.62;50.86;94870.19;5154735;27;953;-48
2022/06/22 11:57:01;;;;;;;;;;;;;;;28.70;50.89;94873.47;5155567;27;1070;-47
2022/06/22 11:59:27;;;;;;;;;;;;;;;28.67;52.04;94874.84;5155063;27;1918;-49
2022/06/22 12:01:59;;;;;;;;;;;;;;;28.53;49.84;94887.56;5155397;27;956;-49
2022/06/22 12:04:58;;;;;;;;;;;;;;;28.40;50.36;94886.19;5155032;27;953;-48
2022/06/22 12:07:44;;;;;;;;;;;;;;;28.30;50.82;94886.22;5089086;27;1252;-48
2022/06/22 12:10:19;;;;;;;;;;;;;;;28.15;50.95;94898.94;5134251;27;1893;-48
2022/06/22 12:12:48;;;;;;;;;;;;;;;28.04;51.73;94903.59;5134331;27;1067;-48
2022/06/22 12:15:24;;;;;;;;;;;;;;;27.99;51.52;94902.78;5134097;27;1079;-48
2022/06/22 12:18:13;;;;;;;;;;;;;;;27.87;50.41;94885.72;5134644;28;995;-48
2022/06/22 12:20:42;;;;;;;;;;;;;;;27.80;51.55;94895.06;5115666;28;2039;-50
2022/06/22 12:23:35;;;;;;;;;;;;;;;27.80;52.47;94895.06;5134263;28;1016;-47
2022/06/22 12:26:08;;;;;;;;;;;;;;;27.81;52.10;94902.22;5095151;28;1117;-50
2022/06/22 12:29:00;;;;;;;;;;;;;;;27.81;52.44;94899.50;5134087;28;1094;-47
2022/06/22 12:31:32;;;;;;;;;;;;;;;27.76;53.17;94906.91;5134206;28;1040;-48
2022/06/22 12:34:02;;;;;;;;;;;;;;;27.74;53.39;94900.88;5134070;28;925;-48
2022/06/22 12:36:31;;;;;;;;;;;;;;;27.74;53.34;94898.94;5134016;28;1056;-48
2022/06/22 12:39:06;;;;;;;;;;;;;;;27.71;52.64;94893.97;5134257;28;1906;-48
2022/06/22 12:41:42;;;;;;;;;;;;;;;27.69;52.69;94898.13;5134007;28;1036;-48
2022/06/22 12:44:18;;;;;;;;;;;;;;;27.71;52.59;94890.41;5134035;28;1035;-48
2022/06/22 12:46:56;;;;;;;;;;;;;;;27.73;52.70;94900.03;5133925;28;1012;-48
2022/06/22 12:49:41;;;;;;;;;;;;;;;27.80;52.85;94894.25;5134013;28;988;-48
2022/06/22 12:52:15;;;;;;;;;;;;;;;27.90;52.75;94888.78;5133962;28;1044;-48
2022/06/22 12:54:43;;;;;;;;;;;;;;;28.00;53.07;94897.03;5133544;28;1020;-48
2022/06/22 12:57:13;;;;;;;;;;;;;;;28.06;51.84;94886.84;5133924;28;1012;-48
2022/06/22 12:59:49;;;;;;;;;;;;;;;28.17;52.15;94882.13;5133860;28;1902;-48
2022/06/22 13:02:17;;;;;;;;;;;;;;;28.23;51.99;94881.84;5134126;28;1032;-48
2022/06/22 13:04:45;;;;;;;;;;;;;;;28.22;51.44;94884.88;5133700;27;1036;-48
2022/06/22 13:07:13;;;;;;;;;;;;;;;28.27;50.68;94895.03;5136860;27;1228;-48
2022/06/22 13:09:39;;;;;;;;;;;;;;;28.31;50.04;94896.13;5137768;27;1049;-48
2022/06/22 13:12:19;;;;;;;;;;;;;;;28.36;49.85;94885.09;5138199;27;1024;-48
2022/06/22 13:14:51;;;;;;;;;;;;;;;28.44;49.52;94892.78;5137557;27;1076;-48
2022/06/22 13:17:27;;;;;;;;;;;;;;;28.50;49.67;94893.59;5137701;27;1275;-49
2022/06/22 13:20:12;;;;;;;;;;;;;;;28.55;49.34;94899.09;5137117;27;1905;-48
2022/06/22 13:22:44;;;;;;;;;;;;;;;28.61;50.46;94887.81;5137429;27;1106;-48
2022/06/22 13:25:26;;;;;;;;;;;;;;;28.67;50.46;94893.28;5137225;27;1060;-48
2022/06/22 13:27:56;;;;;;;;;;;;;;;28.70;49.60;94889.97;5137456;27;1067;-48
2022/06/22 13:30:25;;;;;;;;;;;;;;;28.77;50.33;94887.72;5137061;27;1019;-48
2022/06/22 13:32:58;;;;;;;;;;;;;;;28.81;50.69;94889.63;5137336;27;1017;-48
2022/06/22 13:35:36;;;;;;;;;;;;;;;28.83;50.09;94891.28;5118960;27;988;-48
2022/06/22 13:38:15;;;;;;;;;;;;;;;28.76;48.58;94884.16;5137138;27;1055;-48
2022/06/22 13:40:47;;;;;;;;;;;;;;;28.79;48.60;94880.03;5136723;27;1913;-48
2022/06/22 13:43:13;;;;;;;;;;;;;;;28.92;49.76;94881.34;5137357;27;1024;-48
2022/06/22 13:45:52;;;;;;;;;;;;;;;28.96;47.98;94879.66;5136813;27;1091;-48
2022/06/22 13:48:25;;;;;;;;;;;;;;;29.04;49.93;94875.47;5137030;27;1048;-48
2022/06/22 13:53:28;;;;;;;;;;;;;;;29.02;48.08;94865.56;5136932;27;965;-48
2022/06/22 13:56:06;;;;;;;;;;;;;;;29.07;49.17;94867.47;5137018;27;973;-48
2022/06/22 13:58:32;;;;;;;;;;;;;;;29.10;47.33;94866.94;5136992;27;952;-48